Terminal Aerodrome Forecast
Issued by NWS Caribou, ME

Home | Current Version | Previous Version | Text Only | Print | Product List | Glossary On
Versions: 1 2 3 4 5 6 7 8 9 10 11 12 13 14 15 16
000
FTUS41 KCAR 050532
TAFBGR
TAF
KBGR 050532Z 0506/0606 00000KT P6SM FEW250
     FM051700 15004KT P6SM VCSH OVC045
     FM052000 11004KT 5SM -SN OVC025
     FM052300 07004KT 3SM -SN SCT008 OVC015=

USA.gov is the U.S. government's official web portal to all federal, state and local government web resources and services.